createdAt,value
2023-03-13T00:02:11.811Z,4.46
2023-03-13T00:05:18.618Z,4.43
2023-03-13T00:08:41.303Z,4.43
2023-03-13T00:11:48.774Z,4.28
2023-03-13T00:15:02.492Z,4.28
2023-03-13T00:18:11.506Z,4.37
2023-03-13T00:21:33.682Z,4.37
2023-03-13T00:24:39.211Z,4.44
2023-03-13T00:27:45.339Z,4.47
2023-03-13T00:35:27.303Z,4.47
2023-03-13T00:38:37.138Z,4.53
2023-03-13T00:41:41.775Z,4.60
2023-03-13T00:44:53.429Z,4.67
2023-03-13T00:48:08.456Z,4.71
2023-03-13T00:55:04.370Z,4.75
2023-03-13T00:58:08.182Z,4.79
2023-03-13T01:01:16.961Z,4.77
2023-03-13T01:04:27.304Z,4.73
2023-03-13T01:07:30.785Z,4.70
2023-03-13T01:10:35.529Z,4.66
2023-03-13T01:13:41.161Z,4.51
2023-03-13T01:17:07.703Z,4.67
2023-03-13T01:20:34.280Z,4.56
2023-03-13T01:23:40.743Z,4.57
2023-03-13T01:26:45.250Z,4.55
2023-03-13T01:29:54.030Z,4.51
2023-03-13T01:32:57.389Z,4.55
2023-03-13T01:36:16.871Z,4.42
2023-03-13T01:39:22.868Z,4.40
2023-03-13T01:43:01.035Z,4.46
2023-03-13T01:46:11.270Z,4.44
2023-03-13T01:49:32.946Z,4.42
2023-03-13T01:57:18.050Z,4.52
2023-03-13T02:00:26.970Z,4.48
2023-03-13T02:03:44.147Z,4.53
2023-03-13T02:06:53.237Z,4.61
2023-03-13T02:10:04.121Z,4.54
2023-03-13T02:13:07.386Z,4.52
2023-03-13T02:20:27.857Z,4.50
2023-03-13T02:23:45.585Z,4.51
2023-03-13T02:26:50.443Z,4.50
2023-03-13T02:30:00.109Z,4.50
2023-03-13T02:33:07.856Z,4.51
2023-03-13T02:41:23.732Z,4.56
2023-03-13T02:44:41.863Z,4.52
2023-03-13T02:47:48.218Z,4.53
2023-03-13T02:50:54.262Z,4.44
2023-03-13T02:54:03.533Z,4.50
2023-03-13T02:57:10.563Z,4.55
2023-03-13T03:00:17.347Z,4.47
2023-03-13T03:03:21.041Z,4.50
2023-03-13T03:06:30.280Z,4.49
2023-03-13T03:09:34.010Z,4.49
2023-03-13T03:12:45.997Z,4.42
2023-03-13T03:15:56.646Z,4.46
2023-03-13T03:19:03.211Z,4.46
2023-03-13T03:22:11.060Z,4.55
2023-03-13T03:25:14.180Z,4.53
2023-03-13T03:28:23.956Z,4.53
2023-03-13T03:31:27.195Z,4.56
2023-03-13T03:34:32.539Z,4.59
2023-03-13T03:37:43.373Z,4.49
2023-03-13T03:41:09.266Z,4.51
2023-03-13T03:44:15.506Z,4.65
2023-03-13T03:47:20.305Z,4.61
2023-03-13T03:50:25.204Z,4.67
2023-03-13T03:53:29.378Z,4.67
2023-03-13T03:56:32.862Z,4.72
2023-03-13T03:59:36.549Z,4.74
2023-03-13T04:02:43.597Z,4.67
2023-03-13T04:05:47.058Z,4.79
2023-03-13T04:08:50.466Z,4.72
2023-03-13T04:11:54.528Z,4.72
2023-03-13T04:14:58.752Z,4.73
2023-03-13T04:18:10.021Z,4.79
2023-03-13T04:21:13.370Z,4.84
2023-03-13T04:24:24.825Z,4.78
2023-03-13T04:27:30.168Z,4.78
2023-03-13T04:30:33.749Z,4.79
2023-03-13T04:33:37.505Z,4.77
2023-03-13T04:36:42.225Z,4.80
2023-03-13T04:39:45.802Z,4.71
2023-03-13T04:42:49.451Z,4.78
2023-03-13T04:45:55.946Z,4.75
2023-03-13T04:49:00.013Z,4.74
2023-03-13T04:52:03.496Z,4.78
2023-03-13T04:55:07.877Z,4.78
2023-03-13T05:02:48.164Z,4.72
2023-03-13T05:05:52.322Z,4.71
2023-03-13T05:08:59.011Z,4.68
2023-03-13T05:12:03.631Z,4.72
2023-03-13T05:15:07.530Z,4.60
2023-03-13T05:18:18.138Z,4.68
2023-03-13T05:21:28.494Z,4.67
2023-03-13T05:24:32.179Z,4.71
2023-03-13T05:27:35.897Z,4.69
2023-03-13T05:30:45.916Z,4.65
2023-03-13T05:33:49.770Z,4.67
2023-03-13T05:36:54.103Z,4.72
2023-03-13T05:40:04.368Z,4.78
2023-03-13T05:43:18.081Z,4.83
2023-03-13T05:46:22.055Z,4.89
2023-03-13T05:49:28.512Z,4.99
2023-03-13T05:52:35.169Z,5.01
2023-03-13T05:55:38.928Z,5.09
2023-03-13T05:58:42.601Z,5.15
2023-03-13T06:01:46.614Z,5.22
2023-03-13T06:04:50.857Z,5.23
2023-03-13T06:08:08.450Z,5.31
2023-03-13T06:11:31.831Z,5.33
2023-03-13T06:14:35.291Z,5.36
2023-03-13T06:17:41.865Z,5.41
2023-03-13T06:20:50.084Z,5.38
2023-03-13T06:23:58.358Z,5.50
2023-03-13T06:27:01.363Z,5.46
2023-03-13T06:30:15.167Z,5.54
2023-03-13T06:33:24.872Z,5.54
2023-03-13T06:36:28.865Z,5.57
2023-03-13T06:39:32.491Z,5.66
2023-03-13T06:42:36.150Z,5.70
2023-03-13T06:45:39.260Z,5.68
2023-03-13T06:49:01.221Z,5.84
2023-03-13T06:52:06.548Z,5.98
2023-03-13T06:55:16.748Z,6.12
2023-03-13T06:58:31.718Z,5.97
2023-03-13T07:01:38.245Z,5.89
2023-03-13T07:04:45.345Z,5.93
2023-03-13T07:07:49.328Z,6.01
2023-03-13T07:10:54.833Z,6.24
2023-03-13T07:14:15.340Z,6.18
2023-03-13T07:17:21.492Z,6.39
2023-03-13T07:25:02.706Z,6.57
2023-03-13T07:28:06.122Z,6.67
2023-03-13T07:31:39.952Z,6.67
2023-03-13T07:34:47.006Z,6.65
2023-03-13T07:37:50.108Z,6.85
2023-03-13T07:40:55.508Z,6.93
2023-03-13T07:43:58.594Z,7.01
2023-03-13T07:47:09.188Z,7.08
2023-03-13T07:50:21.104Z,7.19
2023-03-13T07:53:34.260Z,6.99
2023-03-13T07:56:37.630Z,7.04
2023-03-13T07:59:47.823Z,7.18
2023-03-13T08:02:51.086Z,7.24
2023-03-13T08:06:06.220Z,7.23
2023-03-13T08:09:11.188Z,7.25
2023-03-13T08:12:14.548Z,7.15
2023-03-13T08:15:22.056Z,7.32
2023-03-13T08:18:25.290Z,7.54
2023-03-13T08:21:30.971Z,7.52
2023-03-13T08:24:35.062Z,7.50
2023-03-13T08:27:38.424Z,7.61
2023-03-13T08:30:44.031Z,7.74
2023-03-13T08:33:48.279Z,7.97
2023-03-13T08:36:53.746Z,7.97
2023-03-13T08:39:57.305Z,8.03
2023-03-13T08:43:01.989Z,8.20
2023-03-13T08:46:05.914Z,8.30
2023-03-13T08:49:16.184Z,8.34
2023-03-13T08:52:22.570Z,8.46
2023-03-13T08:55:29.649Z,8.39
2023-03-13T08:58:33.108Z,8.45
2023-03-13T09:01:36.940Z,8.46
2023-03-13T09:04:40.193Z,8.44
2023-03-13T09:07:46.824Z,8.68
2023-03-13T09:10:59.428Z,8.58
2023-03-13T09:14:06.981Z,8.87
2023-03-13T09:17:14.425Z,8.90
2023-03-13T09:20:24.556Z,9.14
2023-03-13T09:23:33.777Z,9.23
2023-03-13T09:27:00.169Z,9.09
2023-03-13T09:30:04.794Z,9.15
2023-03-13T09:33:11.112Z,9.17
2023-03-13T09:36:44.007Z,9.30
2023-03-13T09:39:49.100Z,9.61
2023-03-13T09:42:58.679Z,9.60
2023-03-13T09:46:12.141Z,9.78
2023-03-13T09:49:38.528Z,9.97
2023-03-13T09:52:44.012Z,10.06
2023-03-13T09:55:47.535Z,10.24
2023-03-13T09:59:12.493Z,10.39
2023-03-13T10:02:36.985Z,10.51
2023-03-13T10:06:06.094Z,10.67
2023-03-13T10:09:23.505Z,10.82
2023-03-13T10:12:39.019Z,10.89
2023-03-13T10:15:58.668Z,10.94
2023-03-13T10:19:13.045Z,11.10
2023-03-13T10:22:20.901Z,11.22
2023-03-13T10:25:27.265Z,11.42
2023-03-13T10:28:30.207Z,11.40
2023-03-13T10:31:34.507Z,11.66
2023-03-13T10:34:51.601Z,11.68
2023-03-13T10:38:03.554Z,11.83
2023-03-13T10:41:36.360Z,12.03
2023-03-13T10:44:40.486Z,12.21
2023-03-13T10:47:43.576Z,12.05
2023-03-13T10:50:49.251Z,12.06
2023-03-13T10:53:52.234Z,12.22
2023-03-13T10:57:31.246Z,12.62
2023-03-13T11:00:39.277Z,13.27
2023-03-13T11:03:43.914Z,12.94
2023-03-13T11:06:53.244Z,13.46
2023-03-13T11:10:21.094Z,13.82
2023-03-13T11:13:36.539Z,13.96
2023-03-13T11:16:48.027Z,13.83
2023-03-13T11:19:58.887Z,13.87
2023-03-13T11:23:30.002Z,13.74
2023-03-13T11:26:39.877Z,13.52
2023-03-13T11:29:54.449Z,13.77
2023-03-13T11:33:01.177Z,14.21
2023-03-13T11:36:25.844Z,14.62
2023-03-13T11:39:47.359Z,14.71
2023-03-13T11:43:28.126Z,14.41
2023-03-13T11:46:43.153Z,14.25
2023-03-13T11:49:47.790Z,14.28
2023-03-13T11:53:14.021Z,13.99
2023-03-13T11:56:28.836Z,14.15
2023-03-13T11:59:43.905Z,14.52
2023-03-13T12:03:06.090Z,15.04
2023-03-13T12:06:27.948Z,15.62
2023-03-13T12:09:33.690Z,15.74
2023-03-13T12:12:55.617Z,16.15
2023-03-13T12:16:12.784Z,17.24
2023-03-13T12:19:24.223Z,18.14
2023-03-13T12:22:41.756Z,17.54
2023-03-13T12:25:49.821Z,17.64
2023-03-13T12:29:40.799Z,18.27
2023-03-13T12:32:52.788Z,18.08
2023-03-13T12:36:10.797Z,18.73
2023-03-13T12:39:30.848Z,18.80
2023-03-13T12:42:47.879Z,19.53
2023-03-13T12:45:57.246Z,18.63
2023-03-13T12:49:06.034Z,17.94
2023-03-13T12:52:24.176Z,18.54
2023-03-13T12:56:05.115Z,19.73
2023-03-13T12:59:12.994Z,20.10
2023-03-13T13:02:22.073Z,20.98
2023-03-13T13:05:25.529Z,20.55
2023-03-13T13:08:34.250Z,19.47
2023-03-13T13:11:37.504Z,18.01
2023-03-13T13:14:49.507Z,16.72
2023-03-13T13:18:03.527Z,16.82
2023-03-13T13:21:26.937Z,15.97
2023-03-13T13:24:51.900Z,15.93
2023-03-13T13:27:55.138Z,15.96
2023-03-13T13:30:58.862Z,15.93
2023-03-13T13:34:02.099Z,15.90
2023-03-13T13:37:20.796Z,15.92
2023-03-13T13:40:28.105Z,16.12
2023-03-13T13:43:36.736Z,16.19
2023-03-13T13:46:45.433Z,16.31
2023-03-13T13:49:57.892Z,16.16
2023-03-13T13:53:54.399Z,16.36
2023-03-13T13:57:03.576Z,16.75
2023-03-13T14:00:21.199Z,16.92
2023-03-13T14:03:31.948Z,18.05
2023-03-13T14:06:49.464Z,19.07
2023-03-13T14:09:58.212Z,18.69
2023-03-13T14:13:03.128Z,18.47
2023-03-13T14:16:25.465Z,18.14
2023-03-13T14:19:35.848Z,18.33
2023-03-13T14:27:16.624Z,19.02
2023-03-13T14:34:26.908Z,18.84
2023-03-13T14:37:44.768Z,18.50
2023-03-13T14:41:42.918Z,17.52
2023-03-13T14:48:40.411Z,17.50
2023-03-13T14:52:05.120Z,17.65
2023-03-13T14:55:28.012Z,17.96
2023-03-13T14:58:31.975Z,17.46
2023-03-13T15:01:35.223Z,17.09
2023-03-13T15:04:49.561Z,16.75
2023-03-13T15:08:23.277Z,16.61
2023-03-13T15:11:32.479Z,16.14
2023-03-13T15:14:40.255Z,15.95
2023-03-13T15:17:47.556Z,15.66
2023-03-13T15:20:55.066Z,15.56
2023-03-13T15:24:15.939Z,15.61
2023-03-13T15:27:21.801Z,15.46
2023-03-13T15:30:25.263Z,15.46
2023-03-13T15:33:29.879Z,15.37
2023-03-13T15:36:33.674Z,15.25
2023-03-13T15:39:37.848Z,15.12
2023-03-13T15:42:46.012Z,15.11
2023-03-13T15:46:05.488Z,14.98
2023-03-13T16:31:37.918Z,13.81
2023-03-13T16:34:42.744Z,13.60
2023-03-13T16:37:46.227Z,13.56
2023-03-13T16:40:52.898Z,13.50
2023-03-13T16:44:07.988Z,13.62
2023-03-13T16:55:29.900Z,13.25
2023-03-13T16:58:33.420Z,13.23
2023-03-13T17:01:37.669Z,13.17
2023-03-13T17:04:52.101Z,13.16
2023-03-13T17:07:57.010Z,13.10
2023-03-13T17:11:18.019Z,13.10
2023-03-13T17:14:21.357Z,13.13
2023-03-13T17:17:26.195Z,13.07
2023-03-13T17:20:30.896Z,13.01
2023-03-13T17:23:55.663Z,12.94
2023-03-13T17:26:59.596Z,12.85
2023-03-13T17:30:06.080Z,12.84
2023-03-13T17:33:10.449Z,12.86
2023-03-13T17:36:18.636Z,12.82
2023-03-13T17:39:25.162Z,12.72
2023-03-13T17:42:40.214Z,12.77
2023-03-13T18:36:21.594Z,12.21
2023-03-13T18:39:27.767Z,12.17
2023-03-13T18:46:30.370Z,12.14
2023-03-13T18:49:40.859Z,12.11
2023-03-13T18:53:00.836Z,12.09
2023-03-13T19:00:04.588Z,11.99
2023-03-13T19:03:17.527Z,11.95
2023-03-13T20:53:58.049Z,11.02
2023-03-13T20:57:02.977Z,11.09
2023-03-13T21:00:09.963Z,11.00
2023-03-13T21:03:18.472Z,11.00
2023-03-13T21:06:23.332Z,11.02
2023-03-13T21:09:28.740Z,10.99
2023-03-13T21:12:33.217Z,11.03
2023-03-13T21:15:37.960Z,11.02
2023-03-13T21:18:42.825Z,10.97
2023-03-13T21:21:47.775Z,10.97
2023-03-13T21:24:52.142Z,10.87
2023-03-13T21:27:55.951Z,10.91
2023-03-13T21:30:59.699Z,10.97
2023-03-13T21:34:04.016Z,10.96
2023-03-13T21:37:08.493Z,11.02
